Tetbury, United Kingdom
Current Conditions -  °F | °C
As of 5:58 PM on Monday 26 Jan 2015 (Local Time) from EGVA Reporting Station
Broken Clouds Broken Clouds  
Wind Chill: 39°   Ceiling: 18000
Heat Index: 43°   Visibility: 6mi
Dew Point: 35°   Wind: 7mph
Humidity: 74%   Direction: 290°WNW
Pressure: 30.31"   Gusts: NA
Location:  51.64°N, 2.16°W
Report Text: EGVA 261758Z AUTO 29006KT 9999 BKN180 06/02 A3031 RMK AO2 SLP270 T00620018 10086 20061 52021 $
Loading
Personal Weather Stations






























Interactive Weather Map New forecast layout! Learn more

10-Day Weather Forecast

Advertisements
Track Severe Weather on mobile